createdAt,value
2016-10-27T00:00:15.156Z,0
2016-10-27T00:01:15.147Z,0
2016-10-27T00:02:15.128Z,0
2016-10-27T00:03:14.799Z,0
2016-10-27T00:04:15.127Z,0
2016-10-27T00:05:15.079Z,0
2016-10-27T00:06:14.749Z,0
2016-10-27T00:07:15.044Z,0
2016-10-27T00:08:14.714Z,0
2016-10-27T00:09:14.687Z,0
2016-10-27T00:10:15.009Z,0
2016-10-27T00:11:14.661Z,0
2016-10-27T00:12:14.649Z,0
2016-10-27T00:13:14.935Z,0
2016-10-27T00:14:14.925Z,0
2016-10-27T00:15:14.920Z,0
2016-10-27T00:16:14.905Z,0
2016-10-27T00:17:14.868Z,0
2016-10-27T00:18:14.859Z,0
2016-10-27T00:19:14.838Z,0
2016-10-27T00:20:14.827Z,0
2016-10-27T00:21:14.805Z,0
2016-10-27T00:22:14.828Z,0
2016-10-27T00:23:14.785Z,0
2016-10-27T00:24:14.437Z,0
2016-10-27T00:25:14.443Z,0
2016-10-27T00:26:14.773Z,0
2016-10-27T00:27:14.748Z,0
2016-10-27T00:28:14.725Z,0
2016-10-27T00:29:14.684Z,0
2016-10-27T00:30:14.338Z,0
2016-10-27T00:31:14.677Z,0
2016-10-27T00:32:14.632Z,0
2016-10-27T00:33:14.291Z,0
2016-10-27T00:34:14.587Z,0
2016-10-27T00:35:14.573Z,0
2016-10-27T00:36:14.566Z,0
2016-10-27T00:37:14.538Z,0
2016-10-27T00:38:14.218Z,0
2016-10-27T00:39:14.521Z,0
2016-10-27T00:40:14.206Z,0
2016-10-27T00:41:14.473Z,0
2016-10-27T00:42:14.455Z,0
2016-10-27T00:43:14.123Z,0
2016-10-27T00:44:14.427Z,0
2016-10-27T00:45:14.132Z,0
2016-10-27T00:46:14.073Z,0
2016-10-27T00:47:14.382Z,0
2016-10-27T00:48:14.357Z,0
2016-10-27T00:49:14.033Z,0
2016-10-27T00:50:14.320Z,0
2016-10-27T00:51:14.303Z,0
2016-10-27T00:52:13.976Z,0
2016-10-27T00:53:13.957Z,0
2016-10-27T00:54:13.931Z,0
2016-10-27T00:55:14.232Z,0
2016-10-27T00:56:14.221Z,0
2016-10-27T00:57:13.893Z,0
2016-10-27T00:58:13.876Z,0
2016-10-27T00:59:14.165Z,0
2016-10-27T01:00:13.846Z,0
2016-10-27T01:01:14.133Z,0
2016-10-27T01:02:14.110Z,0
2016-10-27T01:03:14.106Z,0
2016-10-27T01:04:14.106Z,0
2016-10-27T01:05:14.077Z,0
2016-10-27T01:06:14.052Z,0
2016-10-27T01:07:14.027Z,0
2016-10-27T01:08:14.023Z,0
2016-10-27T01:09:14.035Z,0
2016-10-27T01:10:13.671Z,0
2016-10-27T01:11:13.969Z,0
2016-10-27T01:12:13.629Z,0
2016-10-27T01:13:13.620Z,0
2016-10-27T01:14:13.920Z,0
2016-10-27T01:15:13.893Z,0
2016-10-27T01:16:13.572Z,0
2016-10-27T01:17:13.862Z,0
2016-10-27T01:18:13.535Z,0
2016-10-27T01:19:13.830Z,0
2016-10-27T01:20:13.826Z,0
2016-10-27T01:21:13.493Z,0
2016-10-27T01:22:13.823Z,0
2016-10-27T01:23:13.801Z,0
2016-10-27T01:24:13.433Z,0
2016-10-27T01:25:13.724Z,0
2016-10-27T01:26:13.717Z,0
2016-10-27T01:27:13.380Z,0
2016-10-27T01:28:13.368Z,0
2016-10-27T01:29:13.355Z,0
2016-10-27T01:30:13.655Z,0
2016-10-27T01:31:13.667Z,0
2016-10-27T01:32:13.620Z,0
2016-10-27T01:33:12.972Z,0
2016-10-27T01:34:13.263Z,0
2016-10-27T01:35:13.564Z,0
2016-10-27T01:36:13.236Z,0
2016-10-27T01:37:13.535Z,0
2016-10-27T01:38:13.192Z,0
2016-10-27T01:39:13.177Z,0
2016-10-27T01:40:13.165Z,0
2016-10-27T01:41:13.459Z,0
2016-10-27T01:42:13.480Z,0
2016-10-27T01:43:13.118Z,0
2016-10-27T01:44:13.103Z,0
2016-10-27T01:45:13.396Z,0
2016-10-27T01:46:13.386Z,0
2016-10-27T01:47:13.362Z,0
2016-10-27T01:48:13.032Z,0
2016-10-27T01:49:13.324Z,0
2016-10-27T01:50:12.995Z,0
2016-10-27T01:51:13.301Z,0
2016-10-27T01:52:12.963Z,0
2016-10-27T01:53:12.948Z,0
2016-10-27T01:54:13.249Z,0
2016-10-27T01:55:13.223Z,0
2016-10-27T01:56:13.202Z,0
2016-10-27T01:57:12.873Z,0
2016-10-27T01:58:13.176Z,0
2016-10-27T01:59:13.178Z,0
2016-10-27T02:00:13.152Z,0
2016-10-27T02:01:12.812Z,0
2016-10-27T02:02:13.111Z,0
2016-10-27T02:03:13.088Z,0
2016-10-27T02:04:13.082Z,0
2016-10-27T02:05:12.742Z,0
2016-10-27T02:06:13.044Z,0
2016-10-27T02:07:12.698Z,0
2016-10-27T02:08:12.684Z,0
2016-10-27T02:09:12.978Z,0
2016-10-27T02:10:12.967Z,0
2016-10-27T02:11:12.644Z,0
2016-10-27T02:12:12.626Z,0
2016-10-27T02:13:12.918Z,0
2016-10-27T02:14:12.590Z,0
2016-10-27T02:15:12.883Z,0
2016-10-27T02:16:12.243Z,0
2016-10-27T02:17:12.537Z,0
2016-10-27T02:18:12.199Z,0
2016-10-27T02:19:12.501Z,0
2016-10-27T02:20:12.801Z,0
2016-10-27T02:21:12.794Z,0
2016-10-27T02:22:12.456Z,0
2016-10-27T02:23:12.433Z,0
2016-10-27T02:24:12.732Z,0
2016-10-27T02:25:12.713Z,0
2016-10-27T02:26:12.704Z,0
2016-10-27T02:27:12.058Z,0
2016-10-27T02:28:12.663Z,0
2016-10-27T02:29:12.339Z,0
2016-10-27T02:30:12.319Z,0
2016-10-27T02:31:12.616Z,0
2016-10-27T02:32:12.598Z,0
2016-10-27T02:33:12.579Z,0
2016-10-27T02:34:12.572Z,0
2016-10-27T02:35:12.563Z,0
2016-10-27T02:36:12.537Z,0
2016-10-27T02:37:12.508Z,0
2016-10-27T02:38:12.494Z,0
2016-10-27T02:39:12.476Z,0
2016-10-27T02:40:12.465Z,0
2016-10-27T02:41:12.449Z,0
2016-10-27T02:42:12.429Z,0
2016-10-27T02:43:12.412Z,0
2016-10-27T02:44:12.400Z,0
2016-10-27T02:45:12.381Z,0
2016-10-27T02:46:12.355Z,0
2016-10-27T02:47:12.349Z,0
2016-10-27T02:48:12.316Z,0
2016-10-27T02:49:12.308Z,0
2016-10-27T02:50:11.976Z,0
2016-10-27T02:51:12.267Z,0
2016-10-27T02:52:12.264Z,0
2016-10-27T02:53:12.245Z,0
2016-10-27T02:54:12.223Z,0
2016-10-27T02:55:11.894Z,0
2016-10-27T02:56:12.185Z,0
2016-10-27T02:57:12.176Z,0
2016-10-27T02:58:12.163Z,0
2016-10-27T02:59:12.144Z,0
2016-10-27T03:00:12.130Z,0
2016-10-27T03:01:12.106Z,0
2016-10-27T03:02:12.080Z,0
2016-10-27T03:03:12.071Z,0
2016-10-27T03:04:12.046Z,0
2016-10-27T03:05:11.736Z,0
2016-10-27T03:06:12.062Z,0
2016-10-27T03:07:12.008Z,0
2016-10-27T03:08:11.987Z,0
2016-10-27T03:09:11.966Z,0
2016-10-27T03:10:11.958Z,0
2016-10-27T03:11:11.625Z,0
2016-10-27T03:12:11.920Z,0
2016-10-27T03:13:11.899Z,0
2016-10-27T03:14:11.883Z,0
2016-10-27T03:15:11.552Z,0
2016-10-27T03:16:11.845Z,0
2016-10-27T03:17:11.836Z,0
2016-10-27T03:18:11.847Z,0
2016-10-27T03:19:11.810Z,0
2016-10-27T03:20:11.787Z,0
2016-10-27T03:21:11.459Z,0
2016-10-27T03:22:11.752Z,0
2016-10-27T03:23:11.731Z,0
2016-10-27T03:24:11.717Z,0
2016-10-27T03:25:11.711Z,0
2016-10-27T03:26:11.681Z,0
2016-10-27T03:27:11.659Z,0
2016-10-27T03:28:11.689Z,0
2016-10-27T03:29:11.318Z,0
2016-10-27T03:30:11.619Z,0
2016-10-27T03:31:11.600Z,0
2016-10-27T03:32:11.587Z,0
2016-10-27T03:33:11.258Z,0
2016-10-27T03:34:11.593Z,0
2016-10-27T03:35:11.220Z,0
2016-10-27T03:36:11.519Z,0
2016-10-27T03:37:11.497Z,0
2016-10-27T03:38:11.481Z,0
2016-10-27T03:39:11.465Z,0
2016-10-27T03:40:11.450Z,0
2016-10-27T03:41:11.431Z,0
2016-10-27T03:42:11.421Z,0
2016-10-27T03:43:11.400Z,0
2016-10-27T03:44:11.395Z,0
2016-10-27T03:45:11.385Z,0
2016-10-27T03:46:11.350Z,0
2016-10-27T03:47:11.325Z,0
2016-10-27T03:48:11.309Z,0
2016-10-27T03:49:11.300Z,0
2016-10-27T03:50:10.995Z,0
2016-10-27T03:51:10.954Z,0
2016-10-27T03:52:11.248Z,0
2016-10-27T03:53:11.227Z,0
2016-10-27T03:54:11.208Z,0
2016-10-27T03:55:11.228Z,0
2016-10-27T03:56:11.183Z,0
2016-10-27T03:57:11.157Z,0
2016-10-27T03:58:11.148Z,0
2016-10-27T03:59:11.125Z,0
2016-10-27T04:00:11.119Z,0
2016-10-27T04:01:11.083Z,0
2016-10-27T04:02:11.068Z,0
2016-10-27T04:03:11.055Z,0
2016-10-27T04:04:11.038Z,0
2016-10-27T04:05:10.708Z,0
2016-10-27T04:06:11.000Z,0
2016-10-27T04:07:10.983Z,0
2016-10-27T04:08:10.973Z,0
2016-10-27T04:09:10.954Z,0
2016-10-27T04:10:10.941Z,0
2016-10-27T04:11:10.920Z,0
2016-10-27T04:12:10.909Z,0
2016-10-27T04:13:10.885Z,0
2016-10-27T04:14:10.872Z,0
2016-10-27T04:15:10.853Z,0
2016-10-27T04:16:10.201Z,0
2016-10-27T04:17:10.834Z,0
2016-10-27T04:18:10.795Z,0
2016-10-27T04:19:10.778Z,0
2016-10-27T04:20:10.807Z,0
2016-10-27T04:21:10.439Z,0
2016-10-27T04:22:10.744Z,0
2016-10-27T04:23:10.745Z,0
2016-10-27T04:24:10.746Z,0
2016-10-27T04:25:10.685Z,0
2016-10-27T04:26:10.670Z,0
2016-10-27T04:27:10.646Z,0
2016-10-27T04:28:10.627Z,0
2016-10-27T04:29:10.618Z,0
2016-10-27T04:30:10.282Z,0
2016-10-27T04:31:10.586Z,0
2016-10-27T04:32:10.564Z,0
2016-10-27T04:33:10.549Z,0
2016-10-27T04:34:10.528Z,0
2016-10-27T04:35:10.529Z,0
2016-10-27T04:36:10.185Z,0
2016-10-27T04:37:10.528Z,0
2016-10-27T04:38:10.147Z,0
2016-10-27T04:39:10.452Z,0
2016-10-27T04:40:10.437Z,0
2016-10-27T04:41:10.100Z,0
2016-10-27T04:42:10.394Z,0
2016-10-27T04:43:10.379Z,0
2016-10-27T04:44:10.050Z,0
2016-10-27T04:45:10.379Z,0
2016-10-27T04:46:10.338Z,0
2016-10-27T04:47:10.319Z,0
2016-10-27T04:48:10.291Z,0
2016-10-27T04:49:10.308Z,0
2016-10-27T04:50:09.954Z,0
2016-10-27T04:51:09.933Z,0
2016-10-27T04:52:09.915Z,0
2016-10-27T04:53:10.396Z,0
2016-10-27T04:54:10.193Z,0
2016-10-27T04:55:09.871Z,0
2016-10-27T04:56:10.156Z,0
2016-10-27T04:57:09.845Z,0
2016-10-27T04:58:09.500Z,0
2016-10-27T04:59:10.104Z,0
2016-10-27T05:00:09.504Z,0
2016-10-27T05:01:10.080Z,0
2016-10-27T05:02:09.759Z,0
2016-10-27T05:03:10.089Z,0
2016-10-27T05:04:10.019Z,0
2016-10-27T05:05:09.702Z,0
2016-10-27T05:06:09.990Z,0
2016-10-27T05:07:09.685Z,0
2016-10-27T05:08:09.338Z,0
2016-10-27T05:09:09.633Z,0
2016-10-27T05:10:09.925Z,0
2016-10-27T05:11:09.909Z,0
2016-10-27T05:12:09.593Z,0
2016-10-27T05:13:09.878Z,0
2016-10-27T05:14:09.891Z,0
2016-10-27T05:15:09.847Z,0
2016-10-27T05:16:09.206Z,0
2016-10-27T05:17:09.499Z,0
2016-10-27T05:18:09.483Z,0
2016-10-27T05:19:09.466Z,0
2016-10-27T05:20:09.766Z,0
2016-10-27T05:21:09.756Z,0
2016-10-27T05:22:09.731Z,0
2016-10-27T05:23:09.713Z,0
2016-10-27T05:24:09.690Z,0
2016-10-27T05:25:09.686Z,0
2016-10-27T05:26:09.667Z,0
2016-10-27T05:27:09.646Z,0
2016-10-27T05:28:09.632Z,0
2016-10-27T05:29:09.615Z,0
2016-10-27T05:30:09.600Z,0
2016-10-27T05:31:09.580Z,0
2016-10-27T05:32:09.254Z,0
2016-10-27T05:33:09.552Z,0
2016-10-27T05:34:09.535Z,0
2016-10-27T05:35:09.524Z,0
2016-10-27T05:36:09.502Z,0
2016-10-27T05:37:09.486Z,0
2016-10-27T05:38:09.187Z,0
2016-10-27T05:39:09.164Z,0
2016-10-27T05:40:09.441Z,0
2016-10-27T05:41:09.420Z,0
2016-10-27T05:42:09.405Z,0
2016-10-27T05:43:09.375Z,0
2016-10-27T05:44:09.374Z,0
2016-10-27T05:45:09.360Z,0
2016-10-27T05:46:09.022Z,0
2016-10-27T05:47:09.322Z,0
2016-10-27T05:48:09.308Z,0
2016-10-27T05:49:08.959Z,0
2016-10-27T05:50:09.305Z,0
2016-10-27T05:51:08.936Z,0
2016-10-27T05:52:09.240Z,0
2016-10-27T05:53:09.207Z,0
2016-10-27T05:54:09.210Z,0
2016-10-27T05:55:09.182Z,0
2016-10-27T05:56:08.854Z,0
2016-10-27T05:57:08.830Z,0
2016-10-27T05:58:08.507Z,0
2016-10-27T05:59:09.114Z,0
2016-10-27T06:00:09.110Z,0
2016-10-27T06:01:08.823Z,0
2016-10-27T06:02:09.066Z,0
2016-10-27T06:03:08.739Z,0
2016-10-27T06:04:08.403Z,0
2016-10-27T06:05:09.054Z,0
2016-10-27T06:06:08.995Z,0
2016-10-27T06:07:08.670Z,0
2016-10-27T06:08:08.651Z,0
2016-10-27T06:09:08.943Z,0
2016-10-27T06:10:08.307Z,0
2016-10-27T06:11:08.915Z,0
2016-10-27T06:12:08.907Z,0
2016-10-27T06:13:08.892Z,0
2016-10-27T06:14:08.561Z,0
2016-10-27T06:15:08.538Z,0
2016-10-27T06:16:08.869Z,0
2016-10-27T06:17:08.510Z,0
2016-10-27T06:18:08.800Z,0
2016-10-27T06:19:08.791Z,0
2016-10-27T06:20:08.143Z,0
2016-10-27T06:21:08.437Z,0
2016-10-27T06:22:08.743Z,0
2016-10-27T06:23:08.722Z,0
2016-10-27T06:24:08.385Z,0
2016-10-27T06:25:08.058Z,0
2016-10-27T06:26:08.671Z,0
2016-10-27T06:27:08.345Z,0
2016-10-27T06:28:08.320Z,0
2016-10-27T06:29:08.305Z,0
2016-10-27T06:30:08.603Z,0
2016-10-27T06:31:08.584Z,0
2016-10-27T06:32:08.617Z,0
2016-10-27T06:33:08.245Z,0
2016-10-27T06:34:08.537Z,0
2016-10-27T06:35:08.523Z,0
2016-10-27T06:36:08.195Z,0
2016-10-27T06:37:08.481Z,0
2016-10-27T06:38:08.469Z,0
2016-10-27T06:39:08.459Z,0
2016-10-27T06:40:08.121Z,0
2016-10-27T06:41:07.788Z,0
2016-10-27T06:42:08.413Z,0
2016-10-27T06:43:08.433Z,0
2016-10-27T06:44:08.375Z,0
2016-10-27T06:45:08.393Z,0
2016-10-27T06:46:08.338Z,0
2016-10-27T06:47:08.324Z,0
2016-10-27T06:48:08.307Z,0
2016-10-27T06:49:07.652Z,0
2016-10-27T06:50:07.987Z,0
2016-10-27T06:51:07.948Z,0
2016-10-27T06:52:08.250Z,0
2016-10-27T06:53:08.223Z,0
2016-10-27T06:54:08.219Z,0
2016-10-27T06:55:07.878Z,0
2016-10-27T06:56:08.173Z,0
2016-10-27T06:57:08.154Z,0
2016-10-27T06:58:08.153Z,0
2016-10-27T06:59:08.173Z,0
2016-10-27T07:00:07.786Z,0
2016-10-27T07:01:07.817Z,0
2016-10-27T07:02:08.129Z,0
2016-10-27T07:03:07.744Z,0
2016-10-27T07:04:08.053Z,0
2016-10-27T07:05:07.708Z,0
2016-10-27T07:06:08.023Z,0
2016-10-27T07:07:08.000Z,0
2016-10-27T07:08:07.662Z,0
2016-10-27T07:09:07.954Z,0
2016-10-27T07:10:07.950Z,0
2016-10-27T07:11:07.953Z,0
2016-10-27T07:12:07.902Z,0
2016-10-27T07:13:07.612Z,0
2016-10-27T07:14:07.563Z,0
2016-10-27T07:15:07.564Z,0
2016-10-27T07:16:07.529Z,0
2016-10-27T07:17:07.829Z,0
2016-10-27T07:18:07.498Z,0
2016-10-27T07:19:07.791Z,4
2016-10-27T07:20:07.778Z,4
2016-10-27T07:21:07.769Z,4
2016-10-27T07:22:07.739Z,4
2016-10-27T07:23:07.716Z,4
2016-10-27T07:24:07.077Z,0
2016-10-27T07:25:07.694Z,0
2016-10-27T07:26:07.040Z,0
2016-10-27T07:27:07.347Z,0
2016-10-27T07:28:07.644Z,0
2016-10-27T07:29:07.627Z,0
2016-10-27T07:30:07.616Z,0
2016-10-27T07:31:07.282Z,0
2016-10-27T07:32:07.265Z,0
2016-10-27T07:33:07.567Z,4
2016-10-27T07:34:07.542Z,4
2016-10-27T07:35:07.214Z,4
2016-10-27T07:36:07.515Z,0
2016-10-27T07:37:07.495Z,0
2016-10-27T07:38:07.218Z,0
2016-10-27T07:39:07.465Z,0
2016-10-27T07:40:07.140Z,0
2016-10-27T07:41:07.444Z,0
2016-10-27T07:42:07.119Z,0
2016-10-27T07:43:07.389Z,0
2016-10-27T07:44:07.376Z,0
2016-10-27T07:45:07.365Z,4
2016-10-27T07:46:07.342Z,0
2016-10-27T07:47:07.341Z,0
2016-10-27T07:48:07.311Z,4
2016-10-27T07:49:06.982Z,4
2016-10-27T07:50:06.967Z,4
2016-10-27T07:51:07.272Z,4
2016-10-27T07:52:06.930Z,4
2016-10-27T07:53:07.228Z,4
2016-10-27T07:54:07.206Z,4
2016-10-27T07:55:07.199Z,4
2016-10-27T07:56:07.174Z,4
2016-10-27T07:57:06.526Z,4
2016-10-27T07:58:06.825Z,4
2016-10-27T07:59:07.144Z,4
2016-10-27T08:00:07.115Z,4
2016-10-27T08:01:06.788Z,8
2016-10-27T08:02:06.454Z,4
2016-10-27T08:03:07.057Z,4
2016-10-27T08:04:07.052Z,4
2016-10-27T08:05:07.031Z,4
2016-10-27T08:06:06.703Z,4
2016-10-27T08:07:06.377Z,4
2016-10-27T08:08:06.977Z,4
2016-10-27T08:09:06.967Z,0
2016-10-27T08:10:06.625Z,0
2016-10-27T08:11:06.607Z,4
2016-10-27T08:12:06.594Z,4
2016-10-27T08:13:06.887Z,4
2016-10-27T08:14:06.562Z,4
2016-10-27T08:15:06.546Z,4
2016-10-27T08:16:06.849Z,4
2016-10-27T08:17:06.830Z,4
2016-10-27T08:18:06.815Z,4
2016-10-27T08:19:06.486Z,4
2016-10-27T08:20:06.465Z,0
2016-10-27T08:21:06.776Z,0
2016-10-27T08:22:06.438Z,4
2016-10-27T08:23:06.414Z,0
2016-10-27T08:24:06.724Z,0
2016-10-27T08:25:06.392Z,0
2016-10-27T08:26:06.685Z,0
2016-10-27T08:27:06.656Z,4
2016-10-27T08:28:06.055Z,4
2016-10-27T08:29:06.673Z,4
2016-10-27T08:30:05.990Z,4
2016-10-27T08:31:06.277Z,4
2016-10-27T08:32:06.576Z,4
2016-10-27T08:33:06.553Z,4
2016-10-27T08:34:06.546Z,4
2016-10-27T08:35:06.520Z,4
2016-10-27T08:36:06.229Z,4
2016-10-27T08:37:06.488Z,4
2016-10-27T08:38:06.479Z,4
2016-10-27T08:39:06.509Z,4
2016-10-27T08:40:05.815Z,4
2016-10-27T08:41:06.121Z,8
2016-10-27T08:42:06.092Z,8
2016-10-27T08:43:06.090Z,8
2016-10-27T08:44:06.099Z,4
2016-10-27T08:45:06.396Z,4
2016-10-27T08:46:06.338Z,4
2016-10-27T08:47:06.324Z,4
2016-10-27T08:48:06.348Z,4
2016-10-27T08:49:06.333Z,4
2016-10-27T08:50:05.958Z,4
2016-10-27T08:51:06.267Z,4
2016-10-27T08:52:06.244Z,0
2016-10-27T08:53:06.237Z,4
2016-10-27T08:54:05.589Z,4
2016-10-27T08:55:06.196Z,4
2016-10-27T08:56:06.186Z,4
2016-10-27T08:57:05.528Z,4
2016-10-27T08:58:05.822Z,4
2016-10-27T08:59:06.121Z,4
2016-10-27T09:00:06.114Z,4
2016-10-27T09:01:05.779Z,4
2016-10-27T09:02:06.077Z,8
2016-10-27T09:03:06.068Z,4
2016-10-27T09:04:05.721Z,8
2016-10-27T09:05:06.066Z,8
2016-10-27T09:06:06.035Z,8
2016-10-27T09:07:05.683Z,12
2016-10-27T09:08:05.662Z,8
2016-10-27T09:09:05.329Z,8
2016-10-27T09:10:05.962Z,12
2016-10-27T09:11:05.919Z,12
2016-10-27T09:12:05.910Z,12
2016-10-27T09:13:05.892Z,8
2016-10-27T09:14:05.249Z,12
2016-10-27T09:15:05.860Z,8
2016-10-27T09:16:05.529Z,8
2016-10-27T09:17:05.517Z,8
2016-10-27T09:18:05.492Z,8
2016-10-27T09:19:05.479Z,8
2016-10-27T09:20:05.780Z,8
2016-10-27T09:21:05.441Z,8
2016-10-27T09:22:05.764Z,12
2016-10-27T09:23:05.420Z,12
2016-10-27T09:24:05.714Z,12
2016-10-27T09:25:05.417Z,8
2016-10-27T09:26:05.681Z,12
2016-10-27T09:27:05.339Z,4
2016-10-27T09:28:05.658Z,8
2016-10-27T09:29:05.629Z,8
2016-10-27T09:30:05.603Z,8
2016-10-27T09:31:05.586Z,8
2016-10-27T09:32:05.295Z,12
2016-10-27T09:33:05.562Z,12
2016-10-27T09:34:04.907Z,8
2016-10-27T09:35:05.521Z,12
2016-10-27T09:36:05.511Z,16
2016-10-27T09:37:04.865Z,16
2016-10-27T09:38:05.167Z,12
2016-10-27T09:39:05.140Z,20
2016-10-27T09:40:05.443Z,16
2016-10-27T09:41:05.118Z,20
2016-10-27T09:42:05.413Z,12
2016-10-27T09:43:05.435Z,16
2016-10-27T09:44:04.746Z,12
2016-10-27T09:45:05.351Z,12
2016-10-27T09:46:05.334Z,8
2016-10-27T09:47:05.324Z,8
2016-10-27T09:48:04.671Z,8
2016-10-27T09:49:05.292Z,12
2016-10-27T09:50:05.265Z,8
2016-10-27T09:51:05.256Z,12
2016-10-27T09:52:04.923Z,12
2016-10-27T09:53:04.901Z,12
2016-10-27T09:54:04.568Z,12
2016-10-27T09:55:04.873Z,12
2016-10-27T09:56:05.172Z,4
2016-10-27T09:57:05.148Z,8
2016-10-27T09:58:05.139Z,4
2016-10-27T09:59:04.804Z,8
2016-10-27T10:00:05.111Z,8
2016-10-27T10:01:05.100Z,8
2016-10-27T10:02:05.056Z,8
2016-10-27T10:03:04.745Z,8
2016-10-27T10:04:05.036Z,8
2016-10-27T10:05:05.018Z,12
2016-10-27T10:06:04.992Z,8
2016-10-27T10:07:04.972Z,8
2016-10-27T10:08:04.345Z,8
2016-10-27T10:09:04.630Z,8
2016-10-27T10:10:04.619Z,4
2016-10-27T10:11:04.639Z,4
2016-10-27T10:12:04.590Z,8
2016-10-27T10:13:04.891Z,8
2016-10-27T10:14:04.230Z,8
2016-10-27T10:15:04.846Z,4
2016-10-27T10:16:04.517Z,8
2016-10-27T10:17:04.509Z,8
2016-10-27T10:18:04.799Z,8
2016-10-27T10:19:04.776Z,4
2016-10-27T10:20:04.458Z,8
2016-10-27T10:21:04.435Z,4
2016-10-27T10:22:04.728Z,8
2016-10-27T10:23:04.711Z,8
2016-10-27T10:24:04.383Z,8
2016-10-27T10:25:04.044Z,8
2016-10-27T10:26:04.719Z,8
2016-10-27T10:27:04.326Z,8
2016-10-27T10:28:04.318Z,8
2016-10-27T10:29:04.297Z,8
2016-10-27T10:30:04.605Z,8
2016-10-27T10:31:04.269Z,8
2016-10-27T10:32:03.943Z,8
2016-10-27T10:33:04.548Z,4
2016-10-27T10:34:04.531Z,8
2016-10-27T10:35:04.516Z,12
2016-10-27T10:36:04.496Z,12
2016-10-27T10:37:04.471Z,8
2016-10-27T10:38:03.846Z,12
2016-10-27T10:39:04.449Z,12
2016-10-27T10:40:04.429Z,28
2016-10-27T10:41:04.411Z,16
2016-10-27T10:42:03.768Z,12
2016-10-27T10:43:04.392Z,12
2016-10-27T10:44:03.767Z,8
2016-10-27T10:45:04.041Z,12
2016-10-27T10:46:04.337Z,8
2016-10-27T10:47:04.304Z,12
2016-10-27T10:48:04.300Z,12
2016-10-27T10:49:04.286Z,12
2016-10-27T10:50:04.296Z,12
2016-10-27T10:51:03.929Z,8
2016-10-27T10:52:04.451Z,12
2016-10-27T10:53:04.217Z,12
2016-10-27T10:54:03.880Z,12
2016-10-27T10:55:03.861Z,16
2016-10-27T10:56:03.885Z,8
2016-10-27T10:57:04.153Z,8
2016-10-27T10:58:03.502Z,12
2016-10-27T10:59:04.119Z,12
2016-10-27T11:00:04.078Z,12
2016-10-27T11:01:04.086Z,8
2016-10-27T11:02:03.427Z,12
2016-10-27T11:03:04.038Z,12
2016-10-27T11:04:04.019Z,12
2016-10-27T11:05:03.692Z,12
2016-10-27T11:06:03.991Z,8
2016-10-27T11:07:03.963Z,12
2016-10-27T11:08:03.948Z,12
2016-10-27T11:09:03.627Z,8
2016-10-27T11:10:03.605Z,8
2016-10-27T11:11:03.909Z,12
2016-10-27T11:12:03.885Z,16
2016-10-27T11:13:03.874Z,12
2016-10-27T11:14:03.859Z,12
2016-10-27T11:15:03.844Z,8
2016-10-27T11:16:03.188Z,8
2016-10-27T11:17:03.840Z,8
2016-10-27T11:18:03.796Z,12
2016-10-27T11:19:03.772Z,8
2016-10-27T11:20:03.438Z,12
2016-10-27T11:21:03.738Z,16
2016-10-27T11:22:03.087Z,24
2016-10-27T11:23:03.156Z,12
2016-10-27T11:24:03.685Z,24
2016-10-27T11:25:03.363Z,28
2016-10-27T11:26:03.658Z,28
2016-10-27T11:27:03.629Z,16
2016-10-27T11:28:03.320Z,16
2016-10-27T11:29:03.597Z,16
2016-10-27T11:30:03.600Z,12
2016-10-27T11:31:03.587Z,12
2016-10-27T11:32:03.551Z,12
2016-10-27T11:33:03.540Z,8
2016-10-27T11:34:03.524Z,16
2016-10-27T11:35:03.502Z,12
2016-10-27T11:36:03.484Z,12
2016-10-27T11:37:03.155Z,12
2016-10-27T11:38:03.460Z,12
2016-10-27T11:39:02.846Z,12
2016-10-27T11:40:03.419Z,12
2016-10-27T11:41:03.408Z,8
2016-10-27T11:42:03.389Z,8
2016-10-27T11:43:03.047Z,8
2016-10-27T11:44:03.036Z,8
2016-10-27T11:45:03.346Z,8
2016-10-27T11:46:03.000Z,8
2016-10-27T11:47:03.303Z,12
2016-10-27T11:48:03.293Z,8
2016-10-27T11:49:03.270Z,8
2016-10-27T11:50:03.259Z,8
2016-10-27T11:51:02.954Z,8
2016-10-27T11:52:03.247Z,8
2016-10-27T11:53:03.204Z,12
2016-10-27T11:54:02.866Z,12
2016-10-27T11:55:02.843Z,8
2016-10-27T11:56:03.148Z,12
2016-10-27T11:57:02.496Z,8
2016-10-27T11:58:02.796Z,8
2016-10-27T11:59:02.796Z,8
2016-10-27T12:00:02.801Z,8
2016-10-27T12:01:02.781Z,8
2016-10-27T12:02:02.419Z,4
2016-10-27T12:03:03.066Z,8
2016-10-27T12:04:03.015Z,12
2016-10-27T12:05:02.691Z,12
2016-10-27T12:06:02.660Z,8
2016-10-27T12:07:02.640Z,8
2016-10-27T12:08:02.641Z,8
2016-10-27T12:09:02.932Z,8
2016-10-27T12:10:02.277Z,4
2016-10-27T12:11:02.569Z,8
2016-10-27T12:12:02.920Z,8
2016-10-27T12:13:02.547Z,8
2016-10-27T12:14:02.848Z,8
2016-10-27T12:15:02.827Z,8
2016-10-27T12:16:02.810Z,8
2016-10-27T12:17:02.793Z,4
2016-10-27T12:18:02.773Z,8
2016-10-27T12:19:02.754Z,4
2016-10-27T12:20:02.419Z,4
2016-10-27T12:21:02.407Z,8
2016-10-27T12:22:02.430Z,8
2016-10-27T12:23:02.391Z,12
2016-10-27T12:24:02.670Z,12
2016-10-27T12:25:02.345Z,8
2016-10-27T12:26:02.337Z,4
2016-10-27T12:27:02.310Z,4
2016-10-27T12:28:02.640Z,8
2016-10-27T12:29:02.644Z,8
2016-10-27T12:30:02.267Z,4
2016-10-27T12:31:02.551Z,4
2016-10-27T12:32:02.263Z,8
2016-10-27T12:33:02.520Z,8
2016-10-27T12:34:02.513Z,8
2016-10-27T12:35:02.201Z,8
2016-10-27T12:36:02.467Z,8
2016-10-27T12:37:02.458Z,4
2016-10-27T12:38:02.444Z,8
2016-10-27T12:39:02.112Z,8
2016-10-27T12:40:02.402Z,8
2016-10-27T12:41:02.393Z,8
2016-10-27T12:42:02.378Z,8
2016-10-27T12:43:02.031Z,12
2016-10-27T12:44:02.036Z,8
2016-10-27T12:45:02.313Z,8
2016-10-27T12:46:02.299Z,8
2016-10-27T12:47:02.289Z,8
2016-10-27T12:48:02.269Z,8
2016-10-27T12:49:02.248Z,4
2016-10-27T12:50:02.242Z,8
2016-10-27T12:51:02.253Z,8
2016-10-27T12:52:01.894Z,8
2016-10-27T12:53:02.185Z,8
2016-10-27T12:54:02.177Z,4
2016-10-27T12:55:02.148Z,8
2016-10-27T12:56:01.819Z,4
2016-10-27T12:57:01.486Z,8
2016-10-27T12:58:02.090Z,8
2016-10-27T12:59:02.077Z,8
2016-10-27T13:00:02.072Z,4
2016-10-27T13:01:02.045Z,8
2016-10-27T13:02:02.031Z,4
2016-10-27T13:03:02.010Z,8
2016-10-27T13:04:01.992Z,12
2016-10-27T13:05:01.655Z,8
2016-10-27T13:06:01.642Z,8
2016-10-27T13:07:01.982Z,8
2016-10-27T13:08:01.925Z,8
2016-10-27T13:09:01.911Z,12
2016-10-27T13:10:01.889Z,8
2016-10-27T13:11:01.563Z,8
2016-10-27T13:12:01.269Z,4
2016-10-27T13:13:01.524Z,8
2016-10-27T13:14:01.513Z,8
2016-10-27T13:15:01.494Z,4
2016-10-27T13:16:01.477Z,8
2016-10-27T13:17:01.768Z,4
2016-10-27T13:18:01.761Z,4
2016-10-27T13:19:01.734Z,8
2016-10-27T13:20:01.462Z,4
2016-10-27T13:21:01.708Z,4
2016-10-27T13:22:01.061Z,4
2016-10-27T13:23:01.669Z,4
2016-10-27T13:24:01.696Z,4
2016-10-27T13:25:01.644Z,4
2016-10-27T13:26:01.623Z,4
2016-10-27T13:27:01.607Z,4
2016-10-27T13:28:01.618Z,4
2016-10-27T13:29:01.258Z,4
2016-10-27T13:30:00.925Z,4
2016-10-27T13:31:01.222Z,4
2016-10-27T13:32:00.893Z,4
2016-10-27T13:33:01.193Z,4
2016-10-27T13:34:01.176Z,4
2016-10-27T13:35:01.151Z,4
2016-10-27T13:36:01.463Z,0
2016-10-27T13:37:01.439Z,4
2016-10-27T13:38:01.417Z,4
2016-10-27T13:39:01.111Z,4
2016-10-27T13:40:01.064Z,0
2016-10-27T13:41:01.371Z,4
2016-10-27T13:42:01.036Z,4
2016-10-27T13:43:01.025Z,4
2016-10-27T13:44:01.318Z,4
2016-10-27T13:45:00.677Z,0
2016-10-27T13:46:00.969Z,0
2016-10-27T13:47:01.258Z,4
2016-10-27T13:48:01.261Z,0
2016-10-27T13:49:01.249Z,0
2016-10-27T13:50:00.909Z,0
2016-10-27T13:51:01.196Z,4
2016-10-27T13:52:01.184Z,0
2016-10-27T13:53:00.847Z,0
2016-10-27T13:54:01.142Z,0
2016-10-27T13:55:01.134Z,4
2016-10-27T13:56:01.111Z,0
2016-10-27T13:57:01.134Z,0
2016-10-27T13:58:00.763Z,0
2016-10-27T13:59:01.065Z,0
2016-10-27T14:00:01.036Z,4
2016-10-27T14:01:00.711Z,0
2016-10-27T14:02:01.008Z,4
2016-10-27T14:03:00.990Z,4
2016-10-27T14:04:00.670Z,0
2016-10-27T14:05:00.957Z,4
2016-10-27T14:06:00.627Z,0
2016-10-27T14:07:00.934Z,4
2016-10-27T14:08:00.611Z,4
2016-10-27T14:09:00.577Z,4
2016-10-27T14:10:00.527Z,4
2016-10-27T14:11:00.871Z,4
2016-10-27T14:12:00.538Z,4
2016-10-27T14:13:00.827Z,4
2016-10-27T14:14:00.809Z,4
2016-10-27T14:15:00.484Z,4
2016-10-27T14:16:00.770Z,4
2016-10-27T14:17:00.764Z,0
2016-10-27T14:18:00.779Z,4
2016-10-27T14:19:00.764Z,4
2016-10-27T14:20:00.705Z,0
2016-10-27T14:21:00.375Z,0
2016-10-27T14:22:00.676Z,0
2016-10-27T14:23:00.339Z,0
2016-10-27T14:24:00.633Z,0
2016-10-27T14:25:00.625Z,4
2016-10-27T14:26:00.606Z,0
2016-10-27T14:27:00.276Z,0
2016-10-27T14:28:00.569Z,4
2016-10-27T14:29:00.550Z,4
2016-10-27T14:30:00.533Z,4
2016-10-27T14:31:00.513Z,4
2016-10-27T14:32:00.503Z,4
2016-10-27T14:33:00.497Z,0
2016-10-27T14:34:00.471Z,4
2016-10-27T14:35:00.447Z,4
2016-10-27T14:36:00.426Z,4
2016-10-27T14:37:00.421Z,4
2016-10-27T14:38:00.399Z,4
2016-10-27T14:39:00.402Z,4
2016-10-27T14:40:00.363Z,4
2016-10-27T14:41:00.366Z,0
2016-10-27T14:42:00.339Z,0
2016-10-27T14:43:00.314Z,4